createdAt,value
2018-09-13T00:01:43.686Z,3.43
2018-09-13T00:04:12.842Z,3.77
2018-09-13T00:06:41.795Z,3.53
2018-09-13T00:09:10.946Z,3.80
2018-09-13T00:11:42.315Z,4.40
2018-09-13T00:14:11.261Z,3.80
2018-09-13T00:16:41.281Z,4.10
2018-09-13T00:19:11.834Z,4.33
2018-09-13T00:21:41.842Z,4.43
2018-09-13T00:24:10.838Z,4.80
2018-09-13T00:26:40.757Z,4.07
2018-09-13T00:29:09.800Z,3.97
2018-09-13T00:31:38.820Z,4.47
2018-09-13T00:34:08.015Z,4.37
2018-09-13T00:36:37.114Z,4.67
2018-09-13T00:39:07.148Z,4.53
2018-09-13T00:41:36.302Z,4.30
2018-09-13T00:44:05.325Z,4.10
2018-09-13T00:46:34.841Z,4.60
2018-09-13T00:49:04.318Z,4.33
2018-09-13T00:51:33.577Z,4.33
2018-09-13T00:54:02.609Z,4.53
2018-09-13T00:56:31.928Z,4.73
2018-09-13T00:59:00.861Z,4.57
2018-09-13T01:01:29.997Z,4.47
2018-09-13T01:03:59.149Z,5.33
2018-09-13T01:06:31.686Z,4.33
2018-09-13T01:09:00.654Z,4.57
2018-09-13T01:11:29.710Z,4.83
2018-09-13T01:13:58.743Z,5.27
2018-09-13T01:16:29.261Z,5.63
2018-09-13T01:18:58.290Z,5.87
2018-09-13T01:21:27.310Z,6.50
2018-09-13T01:23:57.384Z,6.63
2018-09-13T01:26:26.458Z,7.17
2018-09-13T01:28:55.493Z,7.47
2018-09-13T01:31:25.823Z,8.10
2018-09-13T01:33:54.814Z,8.07
2018-09-13T01:36:24.161Z,10.87
2018-09-13T01:38:53.199Z,9.90
2018-09-13T01:41:22.278Z,8.67
2018-09-13T01:43:51.320Z,8.30
2018-09-13T01:46:20.453Z,7.70
2018-09-13T01:48:58.676Z,7.90
2018-09-13T01:51:28.685Z,7.80
2018-09-13T01:53:57.714Z,6.90
2018-09-13T01:56:26.892Z,7.17
2018-09-13T01:58:55.933Z,7.00
2018-09-13T02:01:25.016Z,6.67
2018-09-13T02:03:54.969Z,6.93
2018-09-13T02:06:24.113Z,6.30
2018-09-13T02:08:53.080Z,6.40
2018-09-13T02:11:22.166Z,6.47
2018-09-13T02:13:51.350Z,5.57
2018-09-13T02:16:20.503Z,5.60
2018-09-13T02:18:49.461Z,5.57
2018-09-13T02:21:18.377Z,6.00
2018-09-13T02:23:47.999Z,5.77
2018-09-13T02:26:17.135Z,5.10
2018-09-13T02:28:46.234Z,5.87
2018-09-13T02:31:15.311Z,5.57
2018-09-13T02:33:44.375Z,5.70
2018-09-13T02:36:13.412Z,5.90
2018-09-13T02:38:43.021Z,5.47
2018-09-13T02:41:12.023Z,4.73
2018-09-13T02:43:41.097Z,5.00
2018-09-13T02:46:13.039Z,5.57
2018-09-13T02:48:42.540Z,6.20
2018-09-13T02:51:11.820Z,4.90
2018-09-13T02:53:40.965Z,5.40
2018-09-13T02:56:18.716Z,4.80
2018-09-13T02:59:02.450Z,5.00
2018-09-13T03:01:31.508Z,4.80
2018-09-13T03:04:00.662Z,4.43
2018-09-13T03:06:37.021Z,4.87
2018-09-13T03:09:12.664Z,4.97
2018-09-13T03:11:49.662Z,5.13
2018-09-13T03:14:23.454Z,4.50
2018-09-13T03:16:53.746Z,4.73
2018-09-13T03:19:22.666Z,4.20
2018-09-13T03:22:01.631Z,5.50
2018-09-13T03:24:36.863Z,4.27
2018-09-13T03:27:18.455Z,5.70
2018-09-13T03:29:48.339Z,5.03
2018-09-13T03:32:17.780Z,4.87
2018-09-13T03:34:47.133Z,5.80
2018-09-13T03:37:15.982Z,5.40
2018-09-13T03:39:45.124Z,5.57
2018-09-13T03:42:14.299Z,5.07
2018-09-13T03:44:43.244Z,5.53
2018-09-13T03:47:12.461Z,5.73
2018-09-13T03:49:41.560Z,6.20
2018-09-13T03:52:11.526Z,6.30
2018-09-13T03:54:41.237Z,5.90
2018-09-13T03:57:24.964Z,6.47
2018-09-13T03:59:54.889Z,5.60
2018-09-13T04:02:23.994Z,5.13
2018-09-13T04:04:53.500Z,6.10
2018-09-13T04:07:22.623Z,6.60
2018-09-13T04:09:51.678Z,6.60
2018-09-13T04:12:23.700Z,5.97
2018-09-13T04:14:52.765Z,7.03
2018-09-13T04:17:21.738Z,6.40
2018-09-13T04:19:54.745Z,6.30
2018-09-13T04:22:24.951Z,6.53
2018-09-13T04:24:54.199Z,7.50
2018-09-13T04:27:23.026Z,7.03
2018-09-13T04:29:52.422Z,7.43
2018-09-13T04:32:21.570Z,7.03
2018-09-13T04:34:52.938Z,6.63
2018-09-13T04:37:41.532Z,7.97
2018-09-13T04:40:10.554Z,7.70
2018-09-13T04:42:39.658Z,7.27
2018-09-13T04:45:08.718Z,8.30
2018-09-13T04:47:38.634Z,7.67
2018-09-13T04:50:09.113Z,8.50
2018-09-13T04:52:43.400Z,8.30
2018-09-13T04:55:15.396Z,8.43
2018-09-13T04:57:44.563Z,8.33
2018-09-13T05:00:13.845Z,9.40
2018-09-13T05:02:43.980Z,9.10
2018-09-13T05:05:13.098Z,9.20
2018-09-13T05:07:42.211Z,8.27
2018-09-13T05:10:11.226Z,7.67
2018-09-13T05:12:40.242Z,8.23
2018-09-13T05:15:09.393Z,8.33
2018-09-13T05:17:38.727Z,9.37
2018-09-13T05:20:08.679Z,9.17
2018-09-13T05:22:37.761Z,11.60
2018-09-13T05:25:08.197Z,10.30
2018-09-13T05:27:37.382Z,11.07
2018-09-13T05:30:07.089Z,9.27
2018-09-13T05:32:36.170Z,9.90
2018-09-13T05:35:05.247Z,9.43
2018-09-13T05:37:34.155Z,10.47
2018-09-13T05:40:03.217Z,9.87
2018-09-13T05:42:32.294Z,10.27
2018-09-13T05:45:01.313Z,10.80
2018-09-13T05:47:30.348Z,10.73
2018-09-13T05:49:59.426Z,10.60
2018-09-13T05:52:28.439Z,10.40
2018-09-13T05:54:57.651Z,9.70
2018-09-13T05:57:26.599Z,9.80
2018-09-13T05:59:56.420Z,9.43
2018-09-13T06:02:25.950Z,9.57
2018-09-13T06:04:55.201Z,9.73
2018-09-13T06:07:24.207Z,9.27
2018-09-13T06:09:53.273Z,8.60
2018-09-13T06:12:22.301Z,8.10
2018-09-13T06:14:52.334Z,9.40
2018-09-13T06:17:21.461Z,8.70
2018-09-13T06:19:50.823Z,9.17
2018-09-13T06:22:19.782Z,10.40
2018-09-13T06:24:48.783Z,10.60
2018-09-13T06:27:17.920Z,9.30
2018-09-13T06:29:47.807Z,9.50
2018-09-13T06:32:17.053Z,10.53
2018-09-13T06:34:46.227Z,9.50
2018-09-13T06:37:15.416Z,9.87
2018-09-13T06:39:44.493Z,9.70
2018-09-13T06:42:13.690Z,9.33
2018-09-13T06:44:42.810Z,10.43
2018-09-13T06:47:11.797Z,8.30
2018-09-13T06:49:40.861Z,9.43
2018-09-13T06:52:09.962Z,9.33
2018-09-13T06:54:39.007Z,8.20
2018-09-13T06:57:08.193Z,8.10
2018-09-13T06:59:37.181Z,8.20
2018-09-13T07:02:06.382Z,7.43
2018-09-13T07:04:35.429Z,5.13
2018-09-13T07:07:04.643Z,5.17
2018-09-13T07:09:33.624Z,5.00
2018-09-13T07:12:02.730Z,5.40
2018-09-13T07:14:31.983Z,5.60
2018-09-13T07:17:01.179Z,5.20
2018-09-13T07:19:30.255Z,5.73
2018-09-13T07:21:59.571Z,5.47
2018-09-13T07:24:28.791Z,3.53
2018-09-13T07:26:57.866Z,4.30
2018-09-13T07:29:27.162Z,7.37
2018-09-13T07:31:56.331Z,5.00
2018-09-13T07:34:25.515Z,5.00
2018-09-13T07:36:54.712Z,5.83
2018-09-13T07:39:23.981Z,5.13
2018-09-13T07:41:53.002Z,5.70
2018-09-13T07:44:22.090Z,4.90
2018-09-13T07:46:51.352Z,5.47
2018-09-13T07:49:20.290Z,5.13
2018-09-13T07:51:49.362Z,5.47
2018-09-13T07:54:19.033Z,5.30
2018-09-13T07:56:48.659Z,5.63
2018-09-13T07:59:17.562Z,4.60
2018-09-13T08:01:46.726Z,5.00
2018-09-13T08:04:15.796Z,4.00
2018-09-13T08:06:44.786Z,4.03
2018-09-13T08:09:14.105Z,3.77
2018-09-13T08:11:43.266Z,3.63
2018-09-13T08:14:12.237Z,4.23
2018-09-13T08:16:41.191Z,3.60
2018-09-13T08:19:10.394Z,3.93
2018-09-13T08:21:39.412Z,3.80
2018-09-13T08:24:08.715Z,4.00
2018-09-13T08:26:37.925Z,3.60
2018-09-13T08:29:07.266Z,3.87
2018-09-13T08:31:36.339Z,3.70
2018-09-13T08:34:05.475Z,3.97
2018-09-13T08:36:34.920Z,4.20
2018-09-13T08:39:05.630Z,4.03
2018-09-13T08:41:34.730Z,3.20
2018-09-13T08:44:03.691Z,2.50
2018-09-13T08:46:32.745Z,3.17
2018-09-13T08:49:01.808Z,2.73
2018-09-13T08:51:30.856Z,3.07
2018-09-13T08:53:59.790Z,3.13
2018-09-13T08:56:29.889Z,2.70
2018-09-13T08:58:58.975Z,2.97
2018-09-13T09:01:28.326Z,2.60
2018-09-13T09:03:57.386Z,2.63
2018-09-13T09:06:26.471Z,2.90
2018-09-13T09:08:55.614Z,3.33
2018-09-13T09:11:24.793Z,2.40
2018-09-13T09:13:53.889Z,2.00
2018-09-13T09:16:28.314Z,5.30
2018-09-13T09:18:57.307Z,2.43
2018-09-13T09:21:26.451Z,7.10
2018-09-13T09:23:55.783Z,2.43
2018-09-13T09:29:16.277Z,2.33
2018-09-13T09:31:45.344Z,1.90
2018-09-13T09:34:15.430Z,2.53
2018-09-13T09:36:44.462Z,2.20
2018-09-13T09:39:18.960Z,1.90
2018-09-13T09:41:48.118Z,2.17
2018-09-13T09:44:17.300Z,2.20
2018-09-13T09:46:46.281Z,2.00
2018-09-13T09:49:15.262Z,2.20
2018-09-13T09:51:44.306Z,2.00
2018-09-13T09:54:13.354Z,2.20
2018-09-13T09:56:42.433Z,2.50
2018-09-13T09:59:11.522Z,3.13
2018-09-13T10:01:45.842Z,2.20
2018-09-13T10:04:15.029Z,1.97
2018-09-13T10:06:43.961Z,1.90
2018-09-13T10:09:12.949Z,1.90
2018-09-13T10:11:42.501Z,2.10
2018-09-13T10:14:13.299Z,2.60
2018-09-13T10:16:47.631Z,2.23
2018-09-13T10:21:24.058Z,4.50
2018-09-13T10:23:58.734Z,2.23
2018-09-13T10:26:34.518Z,3.00
2018-09-13T10:29:07.668Z,2.93
2018-09-13T10:31:41.956Z,1.90
2018-09-13T10:34:16.524Z,2.70
2018-09-13T10:36:51.021Z,2.50
2018-09-13T10:39:25.372Z,2.40
2018-09-13T10:41:59.763Z,2.40
2018-09-13T10:44:34.301Z,2.20
2018-09-13T10:47:09.530Z,5.43
2018-09-13T10:49:44.698Z,2.70
2018-09-13T10:52:20.833Z,2.37
2018-09-13T10:54:49.827Z,2.20
2018-09-13T10:57:24.305Z,3.10
2018-09-13T10:59:53.414Z,1.57
2018-09-13T11:02:22.503Z,2.17
2018-09-13T11:05:02.661Z,2.20
2018-09-13T11:07:31.826Z,1.97
2018-09-13T11:10:00.889Z,2.60
2018-09-13T11:13:38.896Z,2.23
2018-09-13T11:16:08.166Z,1.70
2018-09-13T11:18:37.408Z,2.10
2018-09-13T11:21:06.700Z,2.27
2018-09-13T11:23:35.805Z,2.63
2018-09-13T11:26:04.853Z,1.70
2018-09-13T11:28:36.825Z,2.00
2018-09-13T11:31:05.824Z,2.07
2018-09-13T11:33:35.503Z,2.03
2018-09-13T11:36:04.739Z,2.73
2018-09-13T11:38:33.691Z,1.97
2018-09-13T11:41:03.210Z,1.97
2018-09-13T11:43:34.819Z,2.40
2018-09-13T11:46:04.307Z,3.73
2018-09-13T11:48:33.602Z,1.40
2018-09-13T11:51:02.963Z,1.60
2018-09-13T11:53:32.008Z,1.90
2018-09-13T11:56:01.085Z,2.13
2018-09-13T11:58:30.220Z,1.53
2018-09-13T12:00:59.173Z,1.57
2018-09-13T12:03:28.470Z,1.77
2018-09-13T12:05:57.430Z,2.17
2018-09-13T12:08:26.457Z,1.73
2018-09-13T12:10:55.495Z,1.30
2018-09-13T12:13:24.600Z,1.83
2018-09-13T12:15:53.738Z,3.83
2018-09-13T12:18:22.994Z,1.97
2018-09-13T12:20:51.801Z,1.50
2018-09-13T12:23:20.944Z,1.70
2018-09-13T12:25:51.049Z,2.20
2018-09-13T12:28:20.267Z,1.80
2018-09-13T12:30:50.331Z,1.70
2018-09-13T12:33:20.767Z,1.97
2018-09-13T12:35:49.701Z,1.83
2018-09-13T12:38:18.797Z,2.70
2018-09-13T12:40:48.058Z,1.83
2018-09-13T12:43:17.221Z,1.47
2018-09-13T12:45:46.242Z,2.37
2018-09-13T12:48:16.175Z,1.80
2018-09-13T12:50:45.754Z,1.50
2018-09-13T12:53:14.752Z,1.63
2018-09-13T12:55:49.101Z,1.50
2018-09-13T12:58:18.294Z,1.60
2018-09-13T13:00:47.620Z,1.53
2018-09-13T13:03:17.880Z,1.10
2018-09-13T13:05:47.365Z,1.50
2018-09-13T13:08:16.182Z,1.20
2018-09-13T13:10:45.468Z,1.73
2018-09-13T13:13:15.029Z,1.10
2018-09-13T13:15:43.986Z,2.20
2018-09-13T13:18:13.109Z,1.67
2018-09-13T13:20:42.097Z,1.33
2018-09-13T13:23:11.111Z,1.80
2018-09-13T13:25:40.562Z,1.90
2018-09-13T13:28:10.781Z,1.90
2018-09-13T13:30:40.090Z,1.20
2018-09-13T13:33:09.145Z,1.23
2018-09-13T13:35:38.242Z,1.93
2018-09-13T13:38:07.438Z,1.37
2018-09-13T13:40:36.434Z,1.80
2018-09-13T13:43:05.539Z,1.67
2018-09-13T13:45:34.903Z,2.33
2018-09-13T13:48:04.153Z,1.30
2018-09-13T13:50:33.294Z,1.50
2018-09-13T13:53:04.635Z,1.10
2018-09-13T13:55:34.670Z,1.93
2018-09-13T13:58:03.814Z,1.63
2018-09-13T14:00:32.791Z,1.73
2018-09-13T14:03:01.951Z,2.00
2018-09-13T14:05:31.300Z,1.67
2018-09-13T14:08:00.382Z,1.93
2018-09-13T14:10:29.481Z,1.87
2018-09-13T14:12:59.068Z,1.63
2018-09-13T14:15:28.818Z,1.63
2018-09-13T14:17:57.994Z,1.87
2018-09-13T14:20:27.168Z,1.90
2018-09-13T14:22:56.669Z,1.90
2018-09-13T14:25:26.272Z,1.37
2018-09-13T14:27:55.280Z,1.63
2018-09-13T14:30:24.336Z,1.80
2018-09-13T14:32:53.648Z,1.57
2018-09-13T14:35:22.736Z,1.67
2018-09-13T14:37:51.950Z,1.50
2018-09-13T14:40:20.863Z,1.60
2018-09-13T14:42:51.338Z,1.50
2018-09-13T14:45:20.569Z,1.50
2018-09-13T14:47:49.730Z,1.30
2018-09-13T14:50:19.110Z,3.70
2018-09-13T14:52:48.456Z,1.43
2018-09-13T14:55:17.663Z,1.90
2018-09-13T14:57:46.706Z,1.63
2018-09-13T15:00:16.726Z,1.60
2018-09-13T15:02:45.841Z,1.30
2018-09-13T15:05:14.821Z,1.67
2018-09-13T15:07:43.838Z,1.50
2018-09-13T15:10:12.937Z,2.00
2018-09-13T15:12:42.280Z,1.23
2018-09-13T15:15:11.306Z,1.33
2018-09-13T15:17:40.276Z,1.53
2018-09-13T15:20:09.578Z,1.77
2018-09-13T15:22:38.681Z,1.77
2018-09-13T15:25:09.508Z,1.57
2018-09-13T15:27:38.651Z,1.23
2018-09-13T15:30:07.782Z,1.27
2018-09-13T15:32:36.797Z,1.43
2018-09-13T15:35:05.932Z,1.30
2018-09-13T15:37:36.108Z,1.40
2018-09-13T15:40:05.214Z,1.03
2018-09-13T15:42:34.152Z,1.70
2018-09-13T15:45:03.424Z,0.97
2018-09-13T15:47:32.407Z,1.47
2018-09-13T15:50:01.456Z,1.30
2018-09-13T15:52:30.731Z,2.20
2018-09-13T15:54:59.610Z,1.40
2018-09-13T15:57:28.876Z,1.50
2018-09-13T15:59:57.900Z,1.17
2018-09-13T16:02:26.844Z,0.87
2018-09-13T16:04:55.740Z,2.03
2018-09-13T16:07:25.053Z,1.10
2018-09-13T16:09:55.135Z,1.60
2018-09-13T16:12:25.671Z,0.93
2018-09-13T16:14:58.747Z,1.30
2018-09-13T16:17:32.759Z,1.30
2018-09-13T16:20:02.204Z,1.27
2018-09-13T16:22:31.427Z,1.70
2018-09-13T16:25:00.961Z,1.50
2018-09-13T16:27:30.255Z,1.30
2018-09-13T16:29:59.505Z,0.93
2018-09-13T16:32:28.659Z,1.37
2018-09-13T16:34:58.984Z,1.30
2018-09-13T16:37:34.155Z,1.20
2018-09-13T16:41:07.253Z,1.37
2018-09-13T16:43:41.607Z,1.60
2018-09-13T16:46:17.731Z,1.40
2018-09-13T16:48:46.989Z,1.30
2018-09-13T16:51:15.992Z,1.20
2018-09-13T16:53:45.216Z,1.43
2018-09-13T16:56:14.242Z,1.57
2018-09-13T16:58:43.679Z,1.17
2018-09-13T17:01:12.745Z,1.47
2018-09-13T17:03:42.248Z,1.60
2018-09-13T17:06:11.940Z,1.20
2018-09-13T17:08:41.098Z,1.43
2018-09-13T17:11:13.002Z,1.43
2018-09-13T17:13:44.723Z,2.03
2018-09-13T17:16:14.211Z,1.60
2018-09-13T17:18:47.972Z,2.10
2018-09-13T17:21:27.889Z,1.40
2018-09-13T17:23:57.552Z,2.23
2018-09-13T17:26:28.716Z,2.90
2018-09-13T17:29:04.353Z,1.90
2018-09-13T17:31:34.916Z,2.00
2018-09-13T17:34:15.405Z,1.37
2018-09-13T17:36:45.584Z,2.17
2018-09-13T17:39:15.926Z,1.50
2018-09-13T17:41:46.090Z,2.47
2018-09-13T17:44:18.143Z,1.40
2018-09-13T17:46:47.806Z,2.10
2018-09-13T17:49:18.815Z,1.73
2018-09-13T17:51:49.735Z,2.00
2018-09-13T17:54:19.717Z,1.97
2018-09-13T17:56:49.833Z,1.97
2018-09-13T17:59:24.692Z,2.10
2018-09-13T18:01:56.636Z,2.20
2018-09-13T18:04:25.917Z,1.70
2018-09-13T18:06:57.950Z,1.93
2018-09-13T18:09:29.154Z,2.30
2018-09-13T18:11:59.920Z,4.33
2018-09-13T18:14:29.138Z,2.00
2018-09-13T18:16:58.486Z,1.80
2018-09-13T18:19:27.766Z,1.77
2018-09-13T18:21:57.842Z,1.97
2018-09-13T18:24:27.709Z,1.83
2018-09-13T18:27:02.786Z,2.10
2018-09-13T18:29:32.085Z,2.17
2018-09-13T18:32:01.298Z,2.00
2018-09-13T18:34:34.409Z,2.10
2018-09-13T18:37:03.785Z,2.63
2018-09-13T18:39:44.367Z,2.80
2018-09-13T18:42:23.344Z,2.17
2018-09-13T18:44:55.781Z,2.80
2018-09-13T18:47:49.347Z,2.27
2018-09-13T18:50:29.095Z,2.30
2018-09-13T18:53:20.866Z,2.30
2018-09-13T18:55:51.010Z,1.80
2018-09-13T19:11:59.796Z,2.30
2018-09-13T19:14:29.158Z,2.20
2018-09-13T19:16:58.476Z,1.80
2018-09-13T19:19:28.451Z,2.20
2018-09-13T20:46:54.267Z,2.70
2018-09-13T20:49:27.356Z,1.80
2018-09-13T20:51:56.859Z,1.97
2018-09-13T21:09:47.127Z,2.33
2018-09-13T21:12:16.454Z,2.40
2018-09-13T21:14:45.596Z,3.03
2018-09-13T21:17:15.514Z,2.30
2018-09-13T21:19:44.661Z,2.00
2018-09-13T21:22:16.180Z,2.53
2018-09-13T21:24:46.538Z,1.90
2018-09-13T21:27:15.922Z,2.13
2018-09-13T21:29:45.183Z,2.17
2018-09-13T21:32:14.219Z,1.67
2018-09-13T21:34:43.286Z,2.73
2018-09-13T21:37:12.285Z,2.57
2018-09-13T21:39:42.666Z,1.83
2018-09-13T21:42:13.977Z,2.87
2018-09-13T21:44:43.220Z,2.60
2018-09-13T21:47:12.330Z,2.70
2018-09-13T21:49:41.466Z,2.37
2018-09-13T21:52:10.705Z,2.37
2018-09-13T21:54:39.814Z,2.60
2018-09-13T21:57:10.630Z,2.20
2018-09-13T21:59:42.912Z,2.00
2018-09-13T22:02:12.072Z,2.30
2018-09-13T22:04:41.893Z,3.10
2018-09-13T22:07:11.051Z,2.93
2018-09-13T22:09:43.642Z,3.90
2018-09-13T22:12:15.246Z,3.13
2018-09-13T22:14:45.573Z,2.87
2018-09-13T22:17:14.685Z,2.53
2018-09-13T22:19:43.939Z,2.53
2018-09-13T22:22:15.969Z,2.60
2018-09-13T22:24:45.179Z,2.10
2018-09-13T22:27:14.225Z,1.90
2018-09-13T22:29:44.812Z,2.13
2018-09-13T22:32:14.076Z,2.90
2018-09-13T22:34:43.332Z,2.27
2018-09-13T22:37:12.471Z,2.67
2018-09-13T22:39:44.701Z,2.60
2018-09-13T22:42:20.164Z,2.77
2018-09-13T22:44:49.349Z,2.50
2018-09-13T22:47:19.146Z,2.20
2018-09-13T22:49:48.338Z,3.17
2018-09-13T22:52:18.392Z,3.13
2018-09-13T22:54:50.664Z,2.77
2018-09-13T22:57:20.211Z,2.83
2018-09-13T22:59:49.408Z,2.60
2018-09-13T23:02:18.889Z,3.57
2018-09-13T23:04:52.356Z,3.07
2018-09-13T23:07:22.594Z,2.87
2018-09-13T23:09:51.743Z,2.80
2018-09-13T23:12:21.298Z,3.27
2018-09-13T23:14:50.353Z,2.97
2018-09-13T23:17:22.288Z,2.73
2018-09-13T23:19:51.289Z,2.70
2018-09-13T23:22:21.293Z,2.87
2018-09-13T23:24:51.642Z,2.57
2018-09-13T23:27:20.728Z,3.40
2018-09-13T23:29:49.664Z,2.10
2018-09-13T23:32:19.515Z,2.90
2018-09-13T23:34:48.718Z,2.60
2018-09-13T23:37:18.084Z,2.50
2018-09-13T23:39:47.425Z,2.40
2018-09-13T23:42:17.380Z,2.80
2018-09-13T23:45:01.034Z,2.73
2018-09-13T23:47:34.788Z,2.77
2018-09-13T23:50:04.378Z,2.60
2018-09-13T23:52:33.614Z,3.23
2018-09-13T23:55:11.452Z,2.77
2018-09-13T23:57:44.787Z,3.80
